Time;durP1;ratioP1;P1;durP2;ratioP2;P2;SDS_P1;SDS_P2;PMS_P1;PMS_P2;Temp;Humidity;BMP_temperature;BMP_pressure;BME280_temperature;BME280_humidity;BME280_pressure;Samples;Min_cycle;Max_cycle;Signal;HPM_P1;HPM_P2
2021/12/25 00:00:52;;;;;;;2.08;1.40;;;;;;;19.56;38.42;100970.50;5074224;28;20092;-67
2021/12/25 00:03:18;;;;;;;2.97;1.52;;;;;;;19.50;38.46;100983.56;5079615;28;20039;-67
2021/12/25 00:05:47;;;;;;;1.55;1.10;;;;;;;19.42;38.60;100973.88;5060255;28;20589;-67
2021/12/25 00:08:13;;;;;;;3.58;1.55;;;;;;;19.41;38.54;100984.63;5083928;28;20123;-67
2021/12/25 00:10:39;;;;;;;3.00;1.17;;;;;;;19.33;38.58;100965.16;5081372;28;20036;-67
2021/12/25 00:13:05;;;;;;;2.08;1.13;;;;;;;19.35;38.80;100977.34;5049499;28;20036;-67
2021/12/25 00:15:30;;;;;;;2.60;1.38;;;;;;;19.31;38.73;100983.00;5062918;28;20040;-67
2021/12/25 00:17:56;;;;;;;1.55;1.15;;;;;;;19.33;38.82;100985.47;5075374;28;20394;-67
2021/12/25 00:20:22;;;;;;;2.00;1.27;;;;;;;19.30;38.77;100986.63;5075151;28;20040;-70
2021/12/25 00:22:47;;;;;;;1.38;1.20;;;;;;;19.21;38.63;100977.13;5082215;28;20067;-70
2021/12/25 00:25:13;;;;;;;1.63;1.40;;;;;;;19.25;38.70;100996.06;5074039;28;20978;-70
2021/12/25 00:27:48;;;;;;;2.72;1.50;;;;;;;19.27;38.75;101002.81;5076251;28;20147;-70
2021/12/25 00:30:27;;;;;;;1.60;1.23;;;;;;;19.18;38.88;101006.47;5058894;28;20031;-70
2021/12/25 00:32:58;;;;;;;2.33;1.27;;;;;;;19.11;38.96;101010.78;5059930;28;20044;-70
2021/12/25 00:35:24;;;;;;;1.40;1.10;;;;;;;19.11;38.79;101009.97;5078070;28;21021;-70
2021/12/25 00:37:49;;;;;;;2.05;1.10;;;;;;;18.99;39.01;101004.22;5059572;28;20363;-70
2021/12/25 00:40:17;;;;;;;1.67;1.13;;;;;;;19.08;39.05;101005.88;5060883;28;20132;-70
2021/12/25 00:42:42;;;;;;;1.90;1.05;;;;;;;19.06;38.80;101013.13;5073389;28;20043;-70
2021/12/25 00:45:08;;;;;;;2.50;1.30;;;;;;;19.00;39.02;101014.63;5073045;28;20033;-70
2021/12/25 00:47:34;;;;;;;0.98;0.88;;;;;;;18.94;39.03;101011.84;5083303;28;20442;-70
2021/12/25 00:50:00;;;;;;;2.55;1.35;;;;;;;18.81;38.89;100996.53;5063714;28;20043;-70
2021/12/25 00:52:25;;;;;;;1.48;0.88;;;;;;;18.96;39.12;101028.31;5057906;28;20044;-70
2021/12/25 00:54:51;;;;;;;2.38;1.30;;;;;;;18.95;38.89;101031.97;5075418;28;20036;-70
2021/12/25 00:57:17;;;;;;;1.65;0.85;;;;;;;18.84;39.04;101029.66;5077369;28;20032;-70
2021/12/25 00:59:42;;;;;;;1.90;1.17;;;;;;;18.80;39.17;101029.19;5080436;28;20384;-70
2021/12/25 01:02:08;;;;;;;1.70;1.10;;;;;;;18.81;39.13;101035.28;5063524;28;20053;-70
2021/12/25 01:04:34;;;;;;;1.23;0.90;;;;;;;18.75;39.26;101036.78;5055214;28;20386;-70
2021/12/25 01:07:00;;;;;;;1.55;1.00;;;;;;;18.65;39.55;101036.13;5062184;28;20028;-70
2021/12/25 01:09:26;;;;;;;1.25;1.00;;;;;;;18.53;39.39;101029.53;5062773;28;20040;-70
2021/12/25 01:11:53;;;;;;;1.30;0.90;;;;;;;18.63;39.28;101038.09;5052939;28;20032;-70
2021/12/25 01:14:43;;;;;;;1.15;1.00;;;;;;;18.63;39.17;101033.66;5063775;28;20038;-70
2021/12/25 01:23:30;;;;;;;1.92;1.00;;;;;;;18.34;39.54;101014.88;5060742;28;20097;-70
2021/12/25 01:37:04;;;;;;;1.17;0.90;;;;;;;18.46;39.38;101058.34;5084355;28;20405;-70
2021/12/25 01:48:45;;;;;;;2.72;1.05;;;;;;;18.31;39.59;101049.44;5065027;28;20036;-70
2021/12/25 01:51:11;;;;;;;;;;;;;;;18.36;39.52;101058.53;5061729;28;20442;-70
2021/12/25 01:53:37;;;;;;;1.60;1.08;;;;;;;18.37;39.37;101062.81;5059687;28;19922;-67
2021/12/25 01:56:05;;;;;;;1.98;0.85;;;;;;;18.34;39.42;101065.78;5065605;28;20032;-67
2021/12/25 01:58:34;;;;;;;0.95;0.70;;;;;;;18.10;39.62;101037.56;5066063;28;20024;-68
2021/12/25 02:01:00;;;;;;;1.85;1.10;;;;;;;18.24;39.57;101062.47;5067794;28;20035;-68
2021/12/25 02:03:30;;;;;;;0.90;0.57;;;;;;;18.19;39.60;101070.06;5066861;28;20036;-70
2021/12/25 02:05:58;;;;;;;1.10;1.00;;;;;;;18.24;39.61;101067.75;5066422;28;20426;-70
2021/12/25 02:08:31;;;;;;;1.35;0.95;;;;;;;18.10;39.50;101063.94;5064892;28;20044;-70
2021/12/25 02:10:57;;;;;;;0.57;0.52;;;;;;;18.03;39.71;101068.22;5065168;28;20572;-70
2021/12/25 02:13:23;;;;;;;1.65;0.68;;;;;;;18.04;39.75;101085.66;5061145;28;20100;-69
2021/12/25 02:15:52;;;;;;;1.63;1.05;;;;;;;18.08;39.62;101075.63;5076193;28;20044;-69
2021/12/25 02:18:29;;;;;;;1.45;0.88;;;;;;;18.10;39.73;101077.09;5064952;28;20039;-69
2021/12/25 02:21:11;;;;;;;0.98;0.68;;;;;;;18.10;39.50;101076.28;5080473;28;20055;-70
2021/12/25 02:23:38;;;;;;;1.25;0.70;;;;;;;18.00;39.94;101086.16;5062730;28;20119;-69
2021/12/25 02:26:05;;;;;;;1.20;0.70;;;;;;;17.97;39.97;101076.78;5065243;28;20500;-69
2021/12/25 02:28:31;;;;;;;0.60;0.55;;;;;;;17.97;39.68;101082.03;5075502;28;20040;-68
2021/12/25 02:31:01;;;;;;;0.85;0.73;;;;;;;17.99;39.60;101077.44;5056339;28;20062;-69
2021/12/25 02:33:28;;;;;;;1.02;0.70;;;;;;;17.99;39.63;101087.16;5064022;28;20063;-70
2021/12/25 02:35:55;;;;;;;1.33;0.60;;;;;;;17.77;39.51;101047.25;5079324;28;20489;-69
2021/12/25 02:38:21;;;;;;;1.67;0.82;;;;;;;17.88;39.47;101069.81;5048147;28;20050;-68
2021/12/25 02:40:46;;;;;;;2.50;0.88;;;;;;;17.95;39.63;101083.97;5060254;28;20117;-68
2021/12/25 02:43:12;;;;;;;1.50;1.00;;;;;;;17.88;39.70;101077.72;5062418;28;20111;-69
2021/12/25 02:45:38;;;;;;;1.45;0.68;;;;;;;17.83;39.79;101079.19;5063126;28;20468;-67
2021/12/25 02:48:07;;;;;;;1.15;0.80;;;;;;;17.87;39.79;101094.50;5059555;28;20054;-67
2021/12/25 02:50:35;;;;;;;2.00;0.63;;;;;;;17.82;39.78;101088.91;5062121;28;20032;-67
2021/12/25 02:53:05;;;;;;;1.40;0.60;;;;;;;17.83;39.90;101092.38;5077413;28;20028;-68
2021/12/25 02:55:31;;;;;;;1.23;0.80;;;;;;;17.79;39.61;101089.22;5062478;28;20047;-68
2021/12/25 02:57:57;;;;;;;1.30;0.47;;;;;;;17.78;39.76;101100.75;5080101;28;20028;-68
2021/12/25 03:00:30;;;;;;;0.60;0.60;;;;;;;17.68;39.80;101094.78;5054681;28;20044;-69
2021/12/25 03:02:57;;;;;;;0.73;0.50;;;;;;;17.83;39.70;101103.72;5061454;28;20139;-68
2021/12/25 03:05:24;;;;;;;1.77;0.60;;;;;;;17.85;39.46;101106.19;5059874;28;20564;-69
2021/12/25 03:07:50;;;;;;;1.10;0.63;;;;;;;17.79;39.55;101095.31;5075266;28;20071;-69
2021/12/25 03:10:18;;;;;;;1.48;1.02;;;;;;;17.79;39.59;101099.78;5064998;28;20067;-70
2021/12/25 03:13:15;;;;;;;0.73;0.50;;;;;;;17.74;39.43;101105.50;5059333;28;20033;-69
2021/12/25 03:15:46;;;;;;;1.02;0.77;;;;;;;17.69;39.70;101096.44;5059145;28;20069;-69
2021/12/25 03:18:23;;;;;;;1.03;0.80;;;;;;;17.71;39.23;101105.00;5060038;28;20479;-67
2021/12/25 03:20:52;;;;;;;2.72;1.20;;;;;;;17.69;39.71;101101.69;5079195;28;20024;-69
2021/12/25 03:23:21;;;;;;;0.83;0.70;;;;;;;17.66;39.68;101102.81;5061324;28;20119;-69
2021/12/25 03:25:48;;;;;;;0.40;0.40;;;;;;;17.65;39.77;101105.59;5073084;28;20092;-70
2021/12/25 03:28:16;;;;;;;1.17;0.77;;;;;;;17.55;39.80;101107.53;5067978;28;20060;-69
2021/12/25 03:30:43;;;;;;;0.98;0.60;;;;;;;17.55;39.83;101102.25;5053832;28;20079;-69
2021/12/25 03:33:12;;;;;;;0.80;0.57;;;;;;;17.55;39.67;101103.06;5054240;28;20029;-70
2021/12/25 03:35:38;;;;;;;1.38;0.82;;;;;;;17.52;39.42;101112.13;5061383;28;20517;-70
2021/12/25 03:38:06;;;;;;;0.80;0.52;;;;;;;17.52;39.60;101103.41;5061454;28;20090;-69
2021/12/25 03:40:32;;;;;;;0.98;0.52;;;;;;;17.60;39.67;101105.25;5057848;28;20040;-70
2021/12/25 03:42:58;;;;;;;0.57;0.50;;;;;;;17.55;39.57;101112.78;5063075;28;20060;-70
2021/12/25 03:45:27;;;;;;;1.48;0.88;;;;;;;17.44;39.66;101096.31;5059516;28;20029;-69
2021/12/25 03:48:07;;;;;;;1.15;0.60;;;;;;;17.45;39.86;101113.75;5058316;28;20039;-70
2021/12/25 03:58:52;;;;;;;1.23;0.70;;;;;;;17.47;39.52;101114.41;5059584;28;20096;-69
2021/12/25 04:01:40;;;;;;;1.65;0.75;;;;;;;17.33;39.82;101112.34;5057479;28;20762;-69
2021/12/25 04:04:15;;;;;;;0.75;0.57;;;;;;;17.38;39.67;101123.22;5055918;28;20124;-69
2021/12/25 04:07:11;;;;;;;0.93;0.50;;;;;;;17.36;39.61;101130.47;5070020;28;20087;-70
2021/12/25 04:09:38;;;;;;;0.90;0.70;;;;;;;17.31;39.66;101124.84;5052460;28;20550;-70
2021/12/25 04:12:08;;;;;;;0.98;0.50;;;;;;;17.34;39.75;101129.81;5061306;28;20597;-70
2021/12/25 04:14:35;;;;;;;1.08;0.68;;;;;;;17.31;39.63;101124.84;5071674;28;20044;-69
2021/12/25 04:17:01;;;;;;;1.10;0.80;;;;;;;17.34;39.71;101126.34;5054460;28;20044;-70
2021/12/25 04:19:27;;;;;;;1.63;1.52;;;;;;;17.31;39.61;101127.47;5060747;28;20100;-69
2021/12/25 04:22:00;;;;;;;1.20;1.10;;;;;;;17.19;39.66;101116.38;5071003;28;20048;-69
2021/12/25 04:24:31;;;;;;;1.02;0.68;;;;;;;17.26;39.83;101136.84;5057601;28;20040;-69
2021/12/25 04:26:57;;;;;;;1.50;0.52;;;;;;;17.18;39.72;101138.41;5062577;28;20044;-69
2021/12/25 04:47:43;;;;;;;2.10;0.80;;;;;;;17.11;39.79;101149.72;5077163;28;20032;-70
2021/12/25 05:01:49;;;;;;;1.10;0.77;;;;;;;17.10;39.59;101154.16;5064145;28;20036;-69
2021/12/25 05:04:26;;;;;;;1.27;0.40;;;;;;;17.24;39.31;101158.06;5076224;28;20047;-69
2021/12/25 05:07:21;;;;;;;1.55;0.70;;;;;;;17.43;38.93;101155.22;5072668;28;20052;-69
2021/12/25 05:09:47;;;;;;;0.65;0.52;;;;;;;17.57;38.66;101163.47;5064517;28;20054;-69
2021/12/25 05:12:12;;;;;;;0.70;0.63;;;;;;;17.63;38.79;101165.50;5056314;28;20113;-69
2021/12/25 05:14:39;;;;;;;1.52;0.73;;;;;;;17.76;38.43;101168.53;5070351;28;20031;-70
2021/12/25 05:17:07;;;;;;;0.98;0.63;;;;;;;17.91;38.30;101166.97;5072677;28;20127;-69
2021/12/25 05:19:33;;;;;;;0.90;0.60;;;;;;;17.98;38.28;101168.00;5062028;28;20586;-69
2021/12/25 05:21:58;;;;;;;1.73;0.70;;;;;;;18.07;38.14;101177.56;5057998;28;20573;-69
2021/12/25 05:24:24;;;;;;;1.90;0.88;;;;;;;18.25;37.91;101176.66;5051707;28;20127;-69
2021/12/25 05:26:57;;;;;;;0.70;0.60;;;;;;;18.43;37.85;101172.06;5061033;28;20051;-69
2021/12/25 05:29:25;;;;;;;1.08;0.60;;;;;;;18.58;37.69;101175.72;5065732;28;20580;-69
2021/12/25 05:31:53;;;;;;;1.45;0.60;;;;;;;18.75;37.51;101184.53;5065566;28;20143;-69
2021/12/25 05:34:29;;;;;;;0.50;0.50;;;;;;;18.84;37.36;101188.78;5081530;28;20040;-69
2021/12/25 05:37:07;;;;;;;1.33;0.60;;;;;;;18.95;37.21;101183.19;5059119;28;20067;-69
2021/12/25 05:39:51;;;;;;;1.75;0.60;;;;;;;19.09;37.01;101180.91;5083692;28;20104;-69
2021/12/25 05:42:23;;;;;;;0.45;0.45;;;;;;;19.11;37.06;101171.81;5063955;28;20032;-69
2021/12/25 05:44:51;;;;;;;0.77;0.70;;;;;;;19.23;36.88;101185.50;5066298;28;20362;-69
2021/12/25 05:47:32;;;;;;;1.00;0.65;;;;;;;19.31;36.77;101196.88;5064247;28;20109;-69
2021/12/25 05:50:16;;;;;;;0.60;0.55;;;;;;;19.50;36.47;101195.69;5071424;28;20074;-70
2021/12/25 05:52:55;;;;;;;0.88;0.50;;;;;;;19.54;36.23;101183.81;5052414;28;20550;-69
2021/12/25 05:55:40;;;;;;;0.38;0.38;;;;;;;19.63;36.21;101207.59;5064474;28;20051;-69
2021/12/25 05:58:25;;;;;;;0.77;0.38;;;;;;;19.68;36.18;101207.88;5063041;28;20044;-69
2021/12/25 06:01:18;;;;;;;1.02;0.70;;;;;;;19.63;36.22;101210.22;5055751;28;20394;-69
2021/12/25 06:03:44;;;;;;;1.20;0.52;;;;;;;19.62;36.35;101219.97;5066908;28;20083;-69
2021/12/25 06:06:09;;;;;;;0.70;0.57;;;;;;;19.61;36.39;101219.16;5061482;28;20032;-69
2021/12/25 06:08:35;;;;;;;0.52;0.40;;;;;;;19.75;36.29;101237.91;5063974;28;20036;-69
2021/12/25 06:11:03;;;;;;;0.75;0.60;;;;;;;19.83;36.02;101236.09;5067403;28;20051;-69
2021/12/25 06:13:30;;;;;;;0.93;0.47;;;;;;;19.80;36.03;101225.88;5058857;28;20698;-69
2021/12/25 06:15:57;;;;;;;1.20;0.35;;;;;;;19.99;35.77;101231.75;5061164;28;21202;-69
2021/12/25 06:18:42;;;;;;;1.23;0.60;;;;;;;20.02;35.66;101228.75;5063198;28;20054;-69
2021/12/25 06:21:12;;;;;;;0.63;0.38;;;;;;;19.96;35.76;101214.41;5064488;28;20044;-69
2021/12/25 06:23:57;;;;;;;0.68;0.30;;;;;;;19.99;35.85;101229.94;5083165;28;20071;-69
2021/12/25 06:27:01;;;;;;;0.77;0.50;;;;;;;20.04;35.80;101245.28;5055811;28;20052;-69
2021/12/25 06:29:38;;;;;;;0.43;0.32;;;;;;;20.00;35.82;101231.59;5067260;28;20056;-69
2021/12/25 06:32:26;;;;;;;0.43;0.43;;;;;;;20.08;35.76;101239.47;5059533;28;20111;-69
2021/12/25 06:35:14;;;;;;;0.45;0.40;;;;;;;20.12;35.66;101242.63;5078312;28;20383;-69
2021/12/25 06:38:00;;;;;;;0.52;0.40;;;;;;;20.13;35.70;101246.91;5076030;28;20036;-69
2021/12/25 06:40:46;;;;;;;0.30;0.30;;;;;;;20.12;35.69;101248.72;5046247;28;20047;-69
2021/12/25 06:43:12;;;;;;;0.68;0.40;;;;;;;20.06;35.60;101240.63;5062148;28;20058;-69
2021/12/25 06:45:37;;;;;;;0.57;0.40;;;;;;;20.06;35.71;101245.94;5059772;28;20046;-69
2021/12/25 06:48:03;;;;;;;0.60;0.47;;;;;;;20.16;35.58;101246.56;5061136;28;20036;-69
2021/12/25 06:50:52;;;;;;;1.42;0.77;;;;;;;20.13;35.53;101249.56;5082551;28;20439;-69
2021/12/25 06:53:43;;;;;;;0.80;0.57;;;;;;;20.05;35.53;101253.03;5070408;28;20048;-69
2021/12/25 06:56:22;;;;;;;0.47;0.47;;;;;;;20.11;35.67;101255.00;5064852;28;20234;-69
2021/12/25 06:59:02;;;;;;;0.63;0.40;;;;;;;20.10;35.63;101258.63;5063798;28;20089;-69
2021/12/25 07:01:31;;;;;;;1.23;0.47;;;;;;;19.94;35.82;101252.59;5059734;28;20044;-69
2021/12/25 07:03:57;;;;;;;0.80;0.50;;;;;;;19.98;35.71;101254.72;5061440;28;20040;-69
2021/12/25 07:06:41;;;;;;;1.52;0.63;;;;;;;20.04;35.71;101271.72;5083089;28;20070;-69
2021/12/25 07:09:29;;;;;;;1.05;0.50;;;;;;;20.03;35.68;101262.13;5055377;28;20044;-69
2021/12/25 07:12:24;;;;;;;1.23;0.70;;;;;;;20.06;35.63;101261.78;5058677;28;20037;-69
2021/12/25 07:15:07;;;;;;;0.47;0.40;;;;;;;20.11;35.60;101284.09;5060980;28;20055;-69
2021/12/25 07:17:53;;;;;;;0.65;0.32;;;;;;;20.10;35.25;101276.31;5079030;28;20118;-69
2021/12/25 07:20:48;;;;;;;0.73;0.38;;;;;;;20.00;35.37;101255.38;5060240;28;20032;-69
2021/12/25 07:23:33;;;;;;;1.35;0.47;;;;;;;20.16;35.36;101279.13;5077152;28;20582;-69
2021/12/25 07:26:05;;;;;;;0.80;0.50;;;;;;;20.12;35.44;101285.75;5061052;28;20497;-69
2021/12/25 07:28:42;;;;;;;0.35;0.35;;;;;;;20.18;35.28;101298.28;5064059;28;20043;-69
2021/12/25 07:31:08;;;;;;;0.30;0.30;;;;;;;20.27;35.24;101309.63;5075800;28;20043;-70
2021/12/25 07:33:36;;;;;;;0.80;0.40;;;;;;;20.23;35.41;101297.75;5080223;28;20055;-69
2021/12/25 07:36:03;;;;;;;0.80;0.38;;;;;;;20.29;35.25;101312.09;5082164;28;20024;-69
2021/12/25 07:38:29;;;;;;;0.82;0.45;;;;;;;20.31;35.19;101302.19;5056781;28;20040;-69
2021/12/25 07:40:55;;;;;;;0.45;0.30;;;;;;;20.30;35.23;101304.03;5078995;28;20025;-69
2021/12/25 07:43:21;;;;;;;0.43;0.40;;;;;;;20.31;35.15;101305.66;5078122;28;20063;-69
2021/12/25 07:46:01;;;;;;;0.70;0.43;;;;;;;20.29;35.26;101304.16;5061857;28;20587;-69
2021/12/25 07:48:27;;;;;;;1.10;0.60;;;;;;;20.16;35.25;101289.69;5080504;28;20564;-69
2021/12/25 07:50:53;;;;;;;1.13;0.60;;;;;;;20.35;35.13;101300.84;5072747;28;20532;-69
2021/12/25 07:53:19;;;;;;;0.55;0.50;;;;;;;20.25;35.20;101293.13;5080113;28;20048;-69
2021/12/25 07:55:50;;;;;;;2.67;0.70;;;;;;;20.33;35.11;101306.31;5062871;28;20301;-69
2021/12/25 07:58:17;;;;;;;0.40;0.40;;;;;;;20.31;35.08;101299.56;5079334;28;20570;-69
2021/12/25 08:00:43;;;;;;;1.00;0.60;;;;;;;20.31;35.24;101310.13;5073760;28;20024;-70
2021/12/25 08:03:09;;;;;;;0.32;0.32;;;;;;;20.21;35.09;101290.00;5071584;28;20529;-70
2021/12/25 08:05:35;;;;;;;1.13;0.50;;;;;;;20.29;35.14;101312.97;5073536;28;20063;-69
2021/12/25 08:08:01;;;;;;;1.50;0.68;;;;;;;20.30;35.13;101305.84;5073478;28;20514;-69
2021/12/25 08:10:27;;;;;;;0.68;0.50;;;;;;;20.39;34.96;101308.28;5078144;28;20035;-69
2021/12/25 08:12:58;;;;;;;2.47;0.73;;;;;;;20.21;35.10;101295.28;5073000;28;20029;-69
2021/12/25 08:15:28;;;;;;;0.40;0.40;;;;;;;20.32;35.01;101303.84;5078398;28;20430;-69
2021/12/25 08:17:55;;;;;;;0.47;0.47;;;;;;;20.33;35.15;101318.72;5074842;28;20028;-69
2021/12/25 08:20:31;;;;;;;2.08;0.75;;;;;;;20.39;34.95;101316.22;5076497;28;20059;-69
2021/12/25 08:23:16;;;;;;;0.75;0.60;;;;;;;20.40;34.86;101317.03;5076727;28;20085;-69
2021/12/25 08:26:13;;;;;;;1.20;0.50;;;;;;;20.41;34.74;101313.41;5061091;28;20048;-69
2021/12/25 08:28:42;;;;;;;1.02;0.40;;;;;;;20.31;35.07;101313.59;5081791;28;20056;-69
2021/12/25 08:31:26;;;;;;;1.50;0.70;;;;;;;20.28;35.03;101306.00;5084056;28;20051;-69
2021/12/25 08:34:19;;;;;;;1.38;0.70;;;;;;;20.42;34.96;101323.00;5071008;28;20564;-69
2021/12/25 08:37:04;;;;;;;2.20;0.70;;;;;;;20.33;35.00;101326.66;5058172;28;20032;-69
2021/12/25 08:39:30;;;;;;;0.43;0.43;;;;;;;20.26;35.15;101329.13;5078479;28;20036;-69
2021/12/25 08:42:01;;;;;;;1.45;0.77;;;;;;;20.34;35.13;101330.94;5079017;28;20040;-69
2021/12/25 08:44:52;;;;;;;1.15;0.77;;;;;;;20.30;35.00;101330.47;5079118;28;20055;-69
2021/12/25 08:47:18;;;;;;;0.98;0.68;;;;;;;20.30;34.90;101322.53;5076785;28;20537;-69
2021/12/25 08:49:43;;;;;;;0.75;0.40;;;;;;;20.20;35.02;101325.38;5076648;28;20090;-69
2021/12/25 08:52:14;;;;;;;0.98;0.40;;;;;;;20.23;35.01;101324.19;5077442;28;20047;-69
2021/12/25 08:54:41;;;;;;;0.75;0.57;;;;;;;20.25;34.88;101337.25;5080718;28;20038;-69
2021/12/25 08:57:07;;;;;;;0.40;0.40;;;;;;;20.18;34.71;101343.22;5080594;28;20032;-69
2021/12/25 08:59:34;;;;;;;1.05;0.60;;;;;;;20.17;34.48;101343.41;5080835;28;20521;-68
2021/12/25 09:02:03;;;;;;;0.93;0.75;;;;;;;20.10;34.25;101348.50;5079295;28;20638;-69
2021/12/25 09:04:29;;;;;;;2.58;1.17;;;;;;;20.11;33.51;101349.38;5078247;28;20036;-70
2021/12/25 09:06:54;;;;;;;2.10;0.80;;;;;;;20.05;33.14;101345.56;5079658;28;20165;-69
2021/12/25 09:09:20;;;;;;;0.80;0.63;;;;;;;20.09;32.51;101352.16;5077719;28;20048;-69
2021/12/25 09:11:46;;;;;;;1.02;0.50;;;;;;;20.14;32.19;101349.03;5081092;28;20681;-69
2021/12/25 09:14:11;;;;;;;0.57;0.35;;;;;;;20.15;32.00;101356.78;5083316;28;20443;-68
2021/12/25 09:16:37;;;;;;;1.55;0.70;;;;;;;19.99;32.04;101348.88;5080438;28;20055;-69
2021/12/25 09:19:03;;;;;;;0.63;0.63;;;;;;;19.87;31.51;101366.06;5077186;28;20071;-68
2021/12/25 09:21:29;;;;;;;2.67;0.82;;;;;;;19.66;31.14;101360.47;5059076;28;20048;-68
2021/12/25 09:23:55;;;;;;;2.17;1.15;;;;;;;19.74;31.52;101366.56;5079189;28;20047;-69
2021/12/25 09:26:20;;;;;;;0.85;0.63;;;;;;;19.81;31.94;101367.56;5074130;28;20698;-69
2021/12/25 09:28:46;;;;;;;1.58;0.70;;;;;;;19.93;32.07;101373.34;5079106;28;20071;-69
2021/12/25 09:31:12;;;;;;;1.95;0.98;;;;;;;20.02;32.13;101366.22;5078960;28;20024;-69
2021/12/25 09:33:38;;;;;;;1.58;0.85;;;;;;;20.07;32.38;101364.72;5061833;28;20043;-69
2021/12/25 09:36:04;;;;;;;2.60;1.00;;;;;;;20.13;32.67;101368.53;5078311;28;20229;-69
2021/12/25 09:38:30;;;;;;;2.63;0.77;;;;;;;20.19;32.72;101371.31;5059634;28;20035;-69
2021/12/25 09:40:57;;;;;;;2.28;0.68;;;;;;;20.27;33.04;101369.63;5079248;28;20123;-68
2021/12/25 09:43:23;;;;;;;2.28;0.57;;;;;;;20.27;33.15;101378.38;5075773;28;20036;-68
2021/12/25 09:45:49;;;;;;;1.60;0.85;;;;;;;20.26;33.38;101386.50;5073210;28;20134;-68
2021/12/25 09:48:15;;;;;;;2.20;1.25;;;;;;;20.20;33.30;101372.97;5079646;28;20036;-64
2021/12/25 09:50:40;;;;;;;1.10;0.73;;;;;;;20.18;33.38;101364.38;5080036;28;20102;-63
2021/12/25 09:53:08;;;;;;;1.00;0.80;;;;;;;20.30;33.50;101385.19;5073752;28;20082;-64
2021/12/25 09:55:35;;;;;;;0.98;0.73;;;;;;;20.29;33.58;101375.56;5079704;28;20043;-64
2021/12/25 09:58:01;;;;;;;0.80;0.50;;;;;;;20.36;33.41;101387.16;5077905;28;20036;-63
2021/12/25 10:00:27;;;;;;;0.77;0.77;;;;;;;20.36;33.51;101393.25;5080612;28;20047;-63
2021/12/25 10:02:55;;;;;;;1.17;0.82;;;;;;;20.32;33.42;101378.72;5058274;28;20028;-64
2021/12/25 10:05:29;;;;;;;1.42;0.63;;;;;;;20.36;33.24;101390.63;5075749;28;20347;-64
2021/12/25 10:08:07;;;;;;;2.42;0.65;;;;;;;20.41;33.41;101390.13;5072222;28;20206;-64
2021/12/25 10:10:46;;;;;;;1.20;0.70;;;;;;;20.40;33.23;101391.09;5081295;28;20068;-64
2021/12/25 10:13:25;;;;;;;2.50;1.30;;;;;;;20.35;33.34;101386.31;5077309;28;20064;-66
2021/12/25 10:15:53;;;;;;;2.13;1.30;;;;;;;20.42;33.30;101381.19;5076574;28;20027;-66
2021/12/25 10:18:35;;;;;;;1.77;0.82;;;;;;;20.33;33.15;101380.38;5075763;28;20036;-66
2021/12/25 10:21:23;;;;;;;2.00;0.75;;;;;;;20.42;33.08;101389.13;5034529;28;20033;-67
2021/12/25 10:24:29;;;;;;;1.02;0.68;;;;;;;20.41;33.11;101390.94;5073502;28;20081;-66
2021/12/25 10:27:09;;;;;;;3.47;0.95;;;;;;;20.40;33.05;101391.91;5025349;28;20085;-66
2021/12/25 10:29:35;;;;;;;1.50;0.50;;;;;;;20.41;32.59;101379.56;5075675;28;20445;-65
2021/12/25 10:32:17;;;;;;;1.88;1.00;;;;;;;20.58;32.53;101390.91;5076519;28;20036;-62
2021/12/25 10:34:44;;;;;;;1.63;0.95;;;;;;;20.51;32.55;101393.41;5076811;28;20040;-63
2021/12/25 10:37:12;;;;;;;4.47;1.23;;;;;;;20.56;32.55;101396.38;5060719;28;21649;-62
2021/12/25 10:39:39;;;;;;;1.30;0.90;;;;;;;20.55;32.81;101400.00;5073256;28;20028;-63
2021/12/25 10:42:12;;;;;;;2.97;1.00;;;;;;;20.61;32.73;101385.25;5076211;28;20106;-62
2021/12/25 10:44:51;;;;;;;1.83;0.88;;;;;;;20.68;32.47;101387.06;5077901;28;20165;-63
2021/12/25 10:47:23;;;;;;;1.20;1.05;;;;;;;20.65;32.77;101389.25;5076725;28;20027;-63
2021/12/25 10:49:48;;;;;;;0.80;0.77;;;;;;;20.62;32.83;101381.63;5080076;28;20893;-63
2021/12/25 10:52:28;;;;;;;3.22;1.40;;;;;;;20.63;32.94;101378.81;5077318;28;20042;-63
2021/12/25 10:54:58;;;;;;;;;;;;;;;20.66;32.56;101383.78;5067177;28;20043;-62
2021/12/25 10:57:30;;;;;;;;;;;;;;;20.60;32.78;101373.84;5073005;28;19920;-63
2021/12/25 10:59:56;;;;;;;1.63;0.95;;;;;;;20.76;32.45;101378.25;5084076;28;19951;-63
2021/12/25 11:02:35;;;;;;;1.30;0.95;;;;;;;20.75;32.45;101379.25;5076115;28;20459;-63
2021/12/25 11:05:34;;;;;;;1.73;0.82;;;;;;;20.69;32.41;101369.38;5070173;28;20482;-63
2021/12/25 11:08:07;;;;;;;1.35;1.13;;;;;;;20.71;32.37;101372.66;5074274;28;20102;-63
2021/12/25 11:10:45;;;;;;;3.35;1.33;;;;;;;20.67;32.35;101382.78;5077249;28;20868;-63
2021/12/25 11:13:21;;;;;;;3.28;1.33;;;;;;;20.54;32.61;101376.38;5069447;28;20476;-63
2021/12/25 11:15:48;;;;;;;1.60;0.65;;;;;;;20.50;32.32;101378.53;5075370;28;20543;-63
2021/12/25 11:18:15;;;;;;;4.13;1.58;;;;;;;20.30;32.69;101374.59;5062875;28;20017;-63
2021/12/25 11:20:43;;;;;;;1.67;1.08;;;;;;;20.33;32.69;101375.09;5075493;28;20040;-63
2021/12/25 11:23:14;;;;;;;1.73;1.08;;;;;;;20.27;32.83;101375.75;5077462;28;20036;-63
2021/12/25 11:25:42;;;;;;;1.90;1.10;;;;;;;20.30;32.66;101372.78;5078632;28;20410;-63
2021/12/25 11:28:10;;;;;;;2.08;1.20;;;;;;;20.31;32.65;101376.25;5077342;28;20085;-63
2021/12/25 11:30:40;;;;;;;0.95;0.90;;;;;;;20.31;32.63;101374.44;5078890;28;20028;-63
2021/12/25 11:33:06;;;;;;;1.27;1.17;;;;;;;20.32;32.59;101380.56;5057171;28;20782;-64
2021/12/25 11:35:34;;;;;;;1.95;0.82;;;;;;;20.39;32.55;101369.13;5074870;28;20048;-63
2021/12/25 11:38:02;;;;;;;1.77;1.27;;;;;;;20.39;32.32;101369.13;5075884;28;20469;-64
2021/12/25 11:40:30;;;;;;;0.80;0.70;;;;;;;20.35;32.48;101364.34;5076642;28;20046;-63
2021/12/25 11:42:57;;;;;;;1.20;1.08;;;;;;;20.23;32.61;101363.88;5073676;28;20162;-63
2021/12/25 11:45:30;;;;;;;1.13;0.80;;;;;;;20.20;32.87;101369.50;5071457;28;20798;-63
2021/12/25 11:48:10;;;;;;;1.33;1.05;;;;;;;20.20;32.50;101361.56;5074470;28;20055;-64
2021/12/25 11:50:41;;;;;;;1.40;0.90;;;;;;;20.16;32.95;101371.66;5076939;28;20432;-63
2021/12/25 11:53:46;;;;;;;2.03;0.80;;;;;;;20.17;32.47;101372.47;5075566;28;20410;-63
2021/12/25 11:56:37;;;;;;;1.85;1.10;;;;;;;20.16;32.53;101371.66;5073279;28;20639;-63
2021/12/25 11:59:17;;;;;;;1.58;1.15;;;;;;;20.16;32.80;101371.66;5077873;28;20036;-63
2021/12/25 12:01:48;;;;;;;2.85;0.73;;;;;;;20.13;32.67;101372.00;5073668;28;20043;-63
2021/12/25 12:04:24;;;;;;;1.40;1.15;;;;;;;20.29;32.71;101360.56;5074780;28;20523;-63
2021/12/25 12:07:08;;;;;;;2.88;1.38;;;;;;;20.32;32.50;101362.03;5076612;28;20044;-63
2021/12/25 12:10:00;;;;;;;2.45;1.70;;;;;;;20.45;32.24;101368.44;5072876;28;20041;-64
2021/12/25 12:12:47;;;;;;;2.83;1.80;;;;;;;20.54;32.48;101355.22;5070048;28;20540;-64
2021/12/25 12:15:45;;;;;;;2.90;1.60;;;;;;;20.57;32.19;101368.09;5071287;28;20051;-64
2021/12/25 12:18:42;;;;;;;4.10;1.80;;;;;;;20.60;32.30;101357.16;5067322;28;20037;-64
2021/12/25 12:21:35;;;;;;;1.75;1.50;;;;;;;20.75;32.14;101355.44;5074078;28;20066;-64
2021/12/25 12:25:14;;;;;;;2.65;1.30;;;;;;;20.69;32.15;101349.03;5072270;28;20032;-64
2021/12/25 12:27:32;;;;;;;2.15;1.40;;;;;;;20.65;32.27;101349.56;5072012;28;21559;-64
2021/12/25 12:29:58;;;;;;;2.30;1.55;;;;;;;20.64;32.45;101359.28;5071312;28;20097;-65
2021/12/25 12:32:23;;;;;;;3.13;1.90;;;;;;;20.57;32.40;101354.84;5071552;28;20048;-65
2021/12/25 12:34:51;;;;;;;3.28;1.48;;;;;;;20.42;32.58;101363.50;5074071;28;20070;-65
2021/12/25 12:37:16;;;;;;;1.80;1.25;;;;;;;20.39;32.79;101355.88;5071359;28;20047;-65
2021/12/25 12:40:19;;;;;;;2.45;1.60;;;;;;;20.39;32.85;101350.59;5077477;28;20108;-65
2021/12/25 12:42:46;;;;;;;2.35;1.30;;;;;;;20.47;32.70;101355.91;5059668;28;20089;-65
2021/12/25 12:45:19;;;;;;;1.52;1.20;;;;;;;20.63;32.48;101352.34;5076256;28;20040;-63
2021/12/25 12:48:10;;;;;;;2.47;1.40;;;;;;;20.68;32.39;101352.66;5076200;28;20558;-63
2021/12/25 12:50:39;;;;;;;3.17;1.52;;;;;;;20.67;32.43;101355.50;5072689;28;20603;-64
2021/12/25 12:53:09;;;;;;;1.98;1.30;;;;;;;20.62;32.66;101358.63;5073930;28;20028;-63
2021/12/25 12:55:40;;;;;;;2.28;1.48;;;;;;;20.74;32.60;101362.56;5072618;28;20047;-65